Time;durP1;ratioP1;P1;durP2;ratioP2;P2;SDS_P1;SDS_P2;PMS_P1;PMS_P2;Temp;Humidity;BMP_temperature;BMP_pressure;BME280_temperature;BME280_humidity;BME280_pressure;Samples;Min_cycle;Max_cycle;Signal;HPM_P1;HPM_P2
2023/03/23 00:01:20;;;;;;;3.33;2.22;;;;;;;10.39;92.41;100166.66;5023742;28;20140;-77
2023/03/23 00:03:47;;;;;;;4.07;2.38;;;;;;;10.40;92.40;100165.75;5027958;28;20048;-77
2023/03/23 00:06:16;;;;;;;4.78;2.00;;;;;;;10.40;92.35;100151.88;5029204;28;20032;-77
2023/03/23 00:08:46;;;;;;;3.97;2.17;;;;;;;10.41;92.26;100169.19;5028146;28;20057;-77
2023/03/23 00:11:18;;;;;;;4.40;2.25;;;;;;;10.42;92.40;100186.50;5026494;28;20067;-77
2023/03/23 00:13:45;;;;;;;3.28;2.08;;;;;;;10.43;92.20;100180.38;5044221;28;20013;-76
2023/03/23 00:16:18;;;;;;;4.95;2.45;;;;;;;10.45;92.00;100171.63;5030205;28;20057;-77
2023/03/23 00:18:52;;;;;;;4.88;2.22;;;;;;;10.44;91.78;100151.72;5031431;28;20021;-77
2023/03/23 00:21:18;;;;;;;4.43;2.20;;;;;;;10.47;91.61;100158.59;5029663;28;20036;-76
2023/03/23 00:23:44;;;;;;;4.03;2.30;;;;;;;10.47;91.47;100177.63;5026862;28;20117;-77
2023/03/23 00:26:10;;;;;;;6.18;2.70;;;;;;;10.50;91.74;100194.03;5032593;28;20028;-77
2023/03/23 00:28:35;;;;;;;4.47;2.75;;;;;;;10.53;91.24;100168.75;5032841;28;20033;-77
2023/03/23 00:31:03;;;;;;;4.80;2.40;;;;;;;10.54;91.41;100174.81;5030532;28;20018;-77
2023/03/23 00:33:33;;;;;;;4.40;2.30;;;;;;;10.55;91.15;100174.75;5031173;28;20052;-77
2023/03/23 00:35:59;;;;;;;4.57;2.50;;;;;;;10.56;91.07;100170.41;5040727;28;20029;-77
2023/03/23 00:38:24;;;;;;;3.72;2.53;;;;;;;10.56;91.08;100176.44;5033139;28;20157;-77
2023/03/23 00:40:50;;;;;;;4.22;2.25;;;;;;;10.56;91.14;100175.59;5034831;28;20017;-77
2023/03/23 00:43:18;;;;;;;4.38;2.30;;;;;;;10.57;90.93;100174.69;5030477;28;20048;-77
2023/03/23 00:45:44;;;;;;;3.83;2.40;;;;;;;10.57;90.96;100177.31;5030991;28;20064;-77
2023/03/23 00:48:12;;;;;;;3.70;2.25;;;;;;;10.61;90.60;100178.88;5032663;28;20037;-77
2023/03/23 00:50:38;;;;;;;5.82;2.63;;;;;;;10.61;90.73;100179.72;5038777;28;20120;-77
2023/03/23 00:53:03;;;;;;;5.47;2.72;;;;;;;10.65;90.60;100164.00;5035106;28;20108;-77
2023/03/23 00:55:30;;;;;;;5.03;2.35;;;;;;;10.64;90.77;100155.34;5033356;28;20024;-77
2023/03/23 00:57:55;;;;;;;3.20;2.30;;;;;;;10.66;90.53;100157.91;5029999;28;20028;-77
2023/03/23 01:00:22;;;;;;;3.90;2.53;;;;;;;10.67;90.44;100157.84;5039575;28;20132;-77
2023/03/23 01:02:47;;;;;;;3.53;2.50;;;;;;;10.69;90.43;100157.75;5030464;28;20430;-77
2023/03/23 01:05:14;;;;;;;4.82;2.50;;;;;;;10.70;90.50;100160.34;5033612;28;20060;-77
2023/03/23 01:07:39;;;;;;;3.78;2.42;;;;;;;10.71;91.22;100162.03;5029208;28;20662;-77
2023/03/23 01:10:05;;;;;;;6.65;2.42;;;;;;;10.71;90.57;100164.63;5032256;28;20025;-77
2023/03/23 01:12:31;;;;;;;4.75;2.50;;;;;;;10.72;90.93;100148.13;5034881;28;20026;-77
2023/03/23 01:14:56;;;;;;;4.20;2.40;;;;;;;10.73;90.83;100146.34;5034115;28;20028;-77
2023/03/23 01:17:21;;;;;;;4.28;2.78;;;;;;;10.73;90.93;100149.81;5032498;28;20021;-77
2023/03/23 01:19:47;;;;;;;4.63;2.90;;;;;;;10.71;90.86;100146.41;5032497;28;20018;-77
2023/03/23 01:22:12;;;;;;;4.47;2.70;;;;;;;10.72;90.71;100114.28;5031755;28;20086;-77
2023/03/23 01:24:37;;;;;;;6.72;2.83;;;;;;;10.73;90.52;100100.38;5034384;28;20026;-77
2023/03/23 01:27:06;;;;;;;4.10;2.60;;;;;;;10.72;90.79;100098.69;5033988;28;20059;-77
2023/03/23 01:29:33;;;;;;;5.78;2.72;;;;;;;10.69;90.90;100087.53;5030687;28;20028;-77
2023/03/23 01:31:58;;;;;;;4.05;2.60;;;;;;;10.67;90.65;100111.00;5033921;28;20025;-77
2023/03/23 01:34:24;;;;;;;6.05;2.90;;;;;;;10.68;90.58;100096.25;5034099;28;20029;-77
2023/03/23 01:36:49;;;;;;;4.70;2.47;;;;;;;10.69;90.63;100093.59;5032556;28;20454;-77
2023/03/23 01:39:14;;;;;;;5.55;3.00;;;;;;;10.69;90.63;100091.00;5033227;28;20018;-77
2023/03/23 01:41:41;;;;;;;4.60;2.90;;;;;;;10.69;90.39;100088.38;5032764;28;20447;-77
2023/03/23 01:44:27;;;;;;;5.28;2.97;;;;;;;10.71;90.67;100080.50;5032221;28;20029;-77
2023/03/23 01:46:54;;;;;;;3.97;2.53;;;;;;;10.74;90.44;100098.63;5039106;28;20021;-77
2023/03/23 01:49:26;;;;;;;4.35;2.50;;;;;;;10.75;90.46;100108.97;5044953;28;20907;-77
2023/03/23 01:51:56;;;;;;;4.85;2.83;;;;;;;10.75;90.28;100098.56;5033505;28;20499;-77
2023/03/23 01:54:23;;;;;;;3.83;2.75;;;;;;;10.75;90.46;100102.91;5043221;28;20020;-77
2023/03/23 01:56:59;;;;;;;5.10;2.60;;;;;;;10.77;90.19;100107.13;5030382;28;20507;-77
2023/03/23 01:59:27;;;;;;;4.35;2.70;;;;;;;10.77;90.49;100094.13;5029849;28;20033;-77
2023/03/23 02:01:55;;;;;;;4.65;2.70;;;;;;;10.76;90.19;100095.03;5031835;28;20127;-77
2023/03/23 02:04:23;;;;;;;4.13;2.80;;;;;;;10.78;90.20;100095.81;5033041;28;20191;-77
2023/03/23 02:06:48;;;;;;;4.70;2.70;;;;;;;10.81;89.92;100078.41;5030139;28;20036;-77
2023/03/23 02:09:16;;;;;;;3.97;2.50;;;;;;;10.80;90.00;100067.16;5033532;28;20029;-77
2023/03/23 02:11:42;;;;;;;4.80;3.00;;;;;;;10.81;90.04;100060.19;5032671;28;20376;-77
2023/03/23 02:14:08;;;;;;;3.95;2.80;;;;;;;10.81;89.77;100060.19;5033957;28;20112;-77
2023/03/23 02:16:55;;;;;;;4.43;2.65;;;;;;;10.84;89.72;100071.34;5029914;28;20022;-77
2023/03/23 02:20:06;;;;;;;5.57;2.80;;;;;;;10.84;89.67;100049.66;5032180;28;20052;-77
2023/03/23 02:23:03;;;;;;;4.05;2.78;;;;;;;10.83;89.72;100059.25;5030509;28;20026;-77
2023/03/23 02:25:58;;;;;;;5.47;2.67;;;;;;;10.86;89.44;100053.91;5031116;28;20044;-77
2023/03/23 02:28:36;;;;;;;4.97;2.78;;;;;;;10.87;88.98;100052.16;5029189;28;20026;-77
2023/03/23 02:31:08;;;;;;;3.92;2.65;;;;;;;10.87;88.94;100046.94;5062967;28;20040;-77
2023/03/23 02:33:46;;;;;;;;;;;;;;;10.90;88.90;100045.06;5034033;28;20444;-77
2023/03/23 02:36:27;;;;;;;5.32;2.70;;;;;;;10.89;88.42;100052.94;5031721;28;20016;-77
2023/03/23 02:39:14;;;;;;;5.18;2.95;;;;;;;10.90;88.64;100047.66;5029876;28;20103;-77
2023/03/23 02:41:45;;;;;;;4.03;2.53;;;;;;;10.88;88.56;100046.03;5029270;28;20073;-77
2023/03/23 02:44:12;;;;;;;4.65;2.42;;;;;;;10.89;88.24;100047.75;5028196;28;20022;-77
2023/03/23 02:46:40;;;;;;;5.45;2.80;;;;;;;10.88;88.51;100035.63;5030406;28;20029;-77
2023/03/23 02:49:07;;;;;;;4.28;2.40;;;;;;;10.87;88.53;100039.97;5025010;28;20033;-77
2023/03/23 02:51:36;;;;;;;3.80;2.45;;;;;;;10.88;88.43;100052.09;5031093;28;20021;-77
2023/03/23 02:54:04;;;;;;;4.10;2.38;;;;;;;10.91;88.00;100043.31;5031840;28;20061;-77
2023/03/23 02:56:32;;;;;;;4.57;2.55;;;;;;;10.92;88.25;100051.06;5029167;28;20115;-77
2023/03/23 02:58:58;;;;;;;4.63;2.60;;;;;;;10.93;87.74;100051.91;5029807;28;20013;-77
2023/03/23 03:01:28;;;;;;;5.13;2.50;;;;;;;10.97;87.79;100050.03;5033474;28;20426;-77
2023/03/23 03:03:55;;;;;;;4.10;2.53;;;;;;;10.98;87.62;100052.56;5030939;28;20051;-77
2023/03/23 03:06:51;;;;;;;4.05;2.50;;;;;;;11.00;87.84;100061.16;5029622;28;20045;-77
2023/03/23 03:09:22;;;;;;;4.20;2.83;;;;;;;11.02;87.60;100042.88;5028579;28;20064;-77
2023/03/23 03:11:56;;;;;;;4.47;2.70;;;;;;;11.02;87.46;100038.53;5030567;28;20048;-77
2023/03/23 03:14:29;;;;;;;5.80;2.60;;;;;;;11.03;87.69;100052.38;5030348;28;20034;-77
2023/03/23 03:17:13;;;;;;;4.50;2.53;;;;;;;11.03;87.45;100050.63;5029654;28;20028;-77
2023/03/23 03:19:42;;;;;;;4.90;2.90;;;;;;;11.04;87.28;100067.94;5033674;28;20048;-77
2023/03/23 03:22:08;;;;;;;3.78;2.60;;;;;;;11.05;87.32;100059.22;5028985;28;20025;-77
2023/03/23 03:24:38;;;;;;;5.20;2.72;;;;;;;11.08;87.03;100047.84;5028541;28;20095;-77
2023/03/23 03:27:10;;;;;;;4.93;2.75;;;;;;;11.10;87.26;100053.81;5029355;28;20471;-77
2023/03/23 03:29:41;;;;;;;4.30;2.60;;;;;;;11.09;87.27;100049.53;5030195;28;20025;-77
2023/03/23 03:32:11;;;;;;;4.78;2.75;;;;;;;11.11;86.97;100067.69;5030208;28;20021;-77
2023/03/23 03:34:36;;;;;;;6.90;3.03;;;;;;;11.12;87.24;100066.78;5030804;28;20460;-76
2023/03/23 03:37:05;;;;;;;3.55;2.60;;;;;;;11.11;87.37;100059.88;5031367;28;20033;-77
2023/03/23 03:39:34;;;;;;;4.22;2.60;;;;;;;11.10;87.05;100056.44;5031406;28;20021;-77
2023/03/23 03:41:59;;;;;;;4.55;2.70;;;;;;;11.09;87.35;100059.94;5029909;28;20384;-77
2023/03/23 03:44:25;;;;;;;4.45;2.78;;;;;;;11.07;87.33;100049.59;5030302;28;20025;-77
2023/03/23 03:46:50;;;;;;;4.65;2.75;;;;;;;11.10;86.75;100050.41;5026967;28;20120;-77
2023/03/23 03:49:15;;;;;;;4.78;2.50;;;;;;;11.10;86.58;100063.41;5029863;28;20416;-77
2023/03/23 03:51:41;;;;;;;3.80;2.60;;;;;;;11.11;86.51;100067.69;5029031;28;20060;-77
2023/03/23 03:54:07;;;;;;;4.25;2.38;;;;;;;11.12;86.37;100058.97;5026985;28;20372;-77
2023/03/23 03:56:37;;;;;;;5.07;2.67;;;;;;;11.12;85.82;100061.56;5029685;28;20029;-77
2023/03/23 03:59:03;;;;;;;3.75;2.40;;;;;;;11.13;85.74;100065.88;5028178;28;20530;-77
2023/03/23 04:01:28;;;;;;;4.70;2.28;;;;;;;11.14;85.62;100064.97;5030501;28;20037;-77
2023/03/23 04:03:55;;;;;;;3.28;1.98;;;;;;;11.14;85.27;100068.41;5028930;28;20072;-77
2023/03/23 04:06:21;;;;;;;4.78;2.20;;;;;;;11.15;84.77;100064.91;5029190;28;20082;-77
2023/03/23 04:08:46;;;;;;;4.68;2.38;;;;;;;11.15;84.55;100064.91;5027311;28;20033;-77
2023/03/23 04:11:13;;;;;;;4.75;2.13;;;;;;;11.18;84.55;100074.34;5025030;28;20075;-77
2023/03/23 04:13:39;;;;;;;5.30;2.00;;;;;;;11.16;84.04;100079.63;5028735;28;20026;-77
2023/03/23 04:16:05;;;;;;;5.25;1.83;;;;;;;11.17;83.61;100076.13;5029322;28;20393;-77
2023/03/23 04:18:32;;;;;;;5.88;2.20;;;;;;;11.17;83.46;100067.44;5027750;28;20033;-77
2023/03/23 04:20:59;;;;;;;5.10;2.22;;;;;;;11.19;83.18;100070.84;5032449;28;20431;-77
2023/03/23 04:23:25;;;;;;;4.40;1.90;;;;;;;11.19;83.06;100081.25;5026182;28;20026;-77
2023/03/23 04:25:52;;;;;;;3.63;1.75;;;;;;;11.18;83.06;100088.22;5026996;28;21258;-77
2023/03/23 04:28:23;;;;;;;5.35;1.92;;;;;;;11.17;82.79;100089.13;5031140;28;20049;-78
2023/03/23 04:30:52;;;;;;;4.60;1.80;;;;;;;11.18;82.29;100088.22;5039823;28;20543;-78
2023/03/23 04:33:18;;;;;;;6.93;1.60;;;;;;;11.18;81.99;100089.97;5033293;28;20010;-77
2023/03/23 04:35:47;;;;;;;4.90;1.55;;;;;;;11.22;81.96;100091.53;5030048;28;20056;-77
2023/03/23 04:38:15;;;;;;;5.25;1.70;;;;;;;11.21;81.51;100090.69;5044932;28;20388;-77
2023/03/23 04:40:42;;;;;;;4.50;1.58;;;;;;;11.20;81.76;100098.56;5029976;28;20431;-77
2023/03/23 04:43:07;;;;;;;4.38;1.25;;;;;;;11.21;81.08;100102.88;5027331;28;20022;-77
2023/03/23 04:45:34;;;;;;;4.07;1.25;;;;;;;11.23;81.31;100098.44;5029384;28;20029;-78
2023/03/23 04:48:01;;;;;;;5.90;1.42;;;;;;;11.23;80.64;100093.25;5032769;28;20459;-77
2023/03/23 04:50:30;;;;;;;5.60;1.40;;;;;;;11.21;80.47;100097.66;5028821;28;20029;-77
2023/03/23 04:52:57;;;;;;;5.55;1.52;;;;;;;11.20;80.81;100093.34;5032237;28;20044;-77
2023/03/23 04:55:24;;;;;;;4.43;1.40;;;;;;;11.21;80.53;100102.88;5028809;28;20029;-78
2023/03/23 04:57:49;;;;;;;5.20;1.17;;;;;;;11.21;79.96;100103.69;5029385;28;20530;-78
2023/03/23 05:00:16;;;;;;;6.10;1.30;;;;;;;11.24;79.58;100095.75;5027791;28;20033;-77
2023/03/23 05:02:43;;;;;;;5.50;1.20;;;;;;;11.24;79.77;100103.56;5024924;28;20021;-78
2023/03/23 05:05:10;;;;;;;4.10;1.58;;;;;;;11.24;79.69;100100.97;5026732;28;20021;-78
2023/03/23 05:07:37;;;;;;;4.72;1.20;;;;;;;11.26;79.71;100113.09;5028432;28;20064;-78
2023/03/23 05:10:02;;;;;;;9.13;1.60;;;;;;;11.28;78.98;100091.28;5026423;28;20056;-77
2023/03/23 05:12:28;;;;;;;4.65;1.30;;;;;;;11.27;79.20;100096.56;5038481;28;20477;-77
2023/03/23 05:14:53;;;;;;;3.47;1.10;;;;;;;11.24;79.23;100108.78;5028742;28;20098;-77
2023/03/23 05:17:18;;;;;;;5.22;1.73;;;;;;;11.22;79.62;100097.59;5036892;28;20040;-77
2023/03/23 05:19:47;;;;;;;3.17;1.00;;;;;;;11.24;79.11;100103.56;5029296;28;20029;-77
2023/03/23 05:22:15;;;;;;;6.10;1.27;;;;;;;11.22;78.90;100091.53;5034607;28;20041;-77
2023/03/23 05:24:42;;;;;;;3.38;1.00;;;;;;;11.20;79.76;100098.56;5034762;28;20491;-77
2023/03/23 05:27:08;;;;;;;4.80;1.10;;;;;;;11.20;79.09;100099.41;5038754;28;20063;-78
2023/03/23 05:29:35;;;;;;;4.68;1.20;;;;;;;11.19;79.41;100099.47;5035924;28;20104;-78
2023/03/23 05:32:05;;;;;;;5.43;1.30;;;;;;;11.19;79.08;100107.28;5032267;28;20387;-77
2023/03/23 05:34:32;;;;;;;3.80;0.90;;;;;;;11.18;78.96;100098.63;5031785;28;20353;-77
2023/03/23 05:36:58;;;;;;;6.55;1.50;;;;;;;11.18;79.02;100108.19;5029086;28;20021;-77
2023/03/23 05:39:24;;;;;;;3.83;1.10;;;;;;;11.16;79.58;100108.25;5032001;28;20029;-77
2023/03/23 05:41:50;;;;;;;6.18;1.23;;;;;;;11.15;79.47;100101.34;5028324;28;20367;-77
2023/03/23 05:44:16;;;;;;;5.30;1.13;;;;;;;11.15;79.09;100103.97;5030549;28;20029;-78
2023/03/23 05:46:41;;;;;;;5.50;1.00;;;;;;;11.15;79.18;100100.50;5031314;28;20132;-77
2023/03/23 05:49:07;;;;;;;3.28;1.10;;;;;;;11.15;79.21;100103.97;5030772;28;20104;-77
2023/03/23 05:51:32;;;;;;;4.00;1.13;;;;;;;11.14;79.21;100097.06;5032429;28;20486;-77
2023/03/23 05:53:57;;;;;;;4.90;1.02;;;;;;;11.12;79.78;100116.22;5033182;28;20520;-77
2023/03/23 05:56:24;;;;;;;4.97;1.50;;;;;;;11.12;79.79;100103.22;5030427;28;20051;-77
2023/03/23 05:58:49;;;;;;;4.93;1.30;;;;;;;11.12;79.37;100111.03;5035051;28;20032;-77
2023/03/23 06:01:15;;;;;;;3.60;1.23;;;;;;;11.06;80.08;100102.56;5029807;28;20103;-77
2023/03/23 06:03:41;;;;;;;4.22;1.33;;;;;;;11.07;80.72;100108.63;5027446;28;20512;-77
2023/03/23 06:06:10;;;;;;;4.43;1.40;;;;;;;11.06;81.13;100118.19;5034726;28;20111;-77
2023/03/23 06:08:37;;;;;;;5.35;1.63;;;;;;;11.04;81.19;100116.53;5027753;28;20033;-77
2023/03/23 06:11:02;;;;;;;3.72;1.50;;;;;;;11.02;81.69;100121.81;5037550;28;20029;-77
2023/03/23 06:13:28;;;;;;;5.20;1.60;;;;;;;11.00;82.33;100113.22;5031695;28;20018;-77
2023/03/23 06:15:59;;;;;;;4.18;1.40;;;;;;;10.97;82.57;100113.34;5030645;28;20520;-77
2023/03/23 06:18:25;;;;;;;4.70;1.52;;;;;;;10.97;82.43;100115.09;5032602;28;20171;-77
2023/03/23 06:20:50;;;;;;;5.55;1.60;;;;;;;10.97;82.25;100133.31;5032399;28;20108;-78
2023/03/23 06:23:16;;;;;;;4.03;1.42;;;;;;;10.97;82.12;100136.75;5029597;28;20488;-77
2023/03/23 06:25:42;;;;;;;4.80;1.60;;;;;;;10.98;82.24;100140.22;5029835;28;20388;-77
2023/03/23 06:28:09;;;;;;;4.65;1.30;;;;;;;11.00;82.19;100148.81;5028627;28;20032;-77
2023/03/23 06:30:34;;;;;;;6.75;1.40;;;;;;;11.00;82.27;100154.03;5034367;28;20029;-77
2023/03/23 06:33:00;;;;;;;5.50;1.90;;;;;;;11.01;82.28;100151.34;5034044;28;20374;-78
2023/03/23 06:35:26;;;;;;;6.13;1.63;;;;;;;11.03;81.91;100156.47;5031884;28;20112;-82
2023/03/23 06:37:53;;;;;;;4.75;1.55;;;;;;;11.04;81.41;100166.84;5030769;28;20041;-77
2023/03/23 06:40:19;;;;;;;5.10;1.48;;;;;;;11.06;81.20;100169.38;5032958;28;20038;-78
2023/03/23 06:42:44;;;;;;;4.22;1.40;;;;;;;11.05;81.20;100168.56;5029551;28;20072;-78
2023/03/23 06:45:10;;;;;;;3.40;1.25;;;;;;;11.06;81.33;100159.84;5030782;28;20120;-78
2023/03/23 06:47:35;;;;;;;4.80;1.35;;;;;;;11.07;81.11;100168.47;5030832;28;20483;-78
2023/03/23 06:50:00;;;;;;;8.10;1.48;;;;;;;11.08;81.08;100180.59;5032035;28;20029;-78
2023/03/23 06:52:26;;;;;;;5.68;1.58;;;;;;;11.08;81.57;100173.66;5030076;28;20030;-78
2023/03/23 06:54:52;;;;;;;5.18;1.40;;;;;;;11.10;80.82;100170.13;5032502;28;20033;-79
2023/03/23 06:57:18;;;;;;;4.88;1.17;;;;;;;11.11;80.70;100183.09;5030325;28;20055;-77
2023/03/23 06:59:44;;;;;;;5.53;1.35;;;;;;;11.11;81.61;100184.81;5034540;28;20112;-79
2023/03/23 07:02:11;;;;;;;3.78;1.13;;;;;;;11.11;82.01;100201.31;5036040;28;20720;-79
2023/03/23 07:04:38;;;;;;;6.45;1.35;;;;;;;11.12;82.02;100200.41;5032627;28;20568;-79
2023/03/23 07:07:04;;;;;;;5.65;1.30;;;;;;;11.08;82.22;100188.41;5031198;28;20369;-76
2023/03/23 07:09:29;;;;;;;5.10;1.10;;;;;;;11.08;81.50;100199.69;5033514;28;20036;-77
2023/03/23 07:11:54;;;;;;;6.75;1.30;;;;;;;11.04;82.41;100198.09;5023856;28;20116;-76
2023/03/23 07:14:21;;;;;;;4.22;1.15;;;;;;;11.03;82.25;100196.38;5027484;28;20025;-77
2023/03/23 07:16:47;;;;;;;5.95;1.85;;;;;;;11.04;82.66;100203.28;5028205;28;20406;-76
2023/03/23 07:19:12;;;;;;;5.47;1.40;;;;;;;11.01;82.99;100200.81;5028108;28;20025;-77
2023/03/23 07:21:37;;;;;;;3.95;1.15;;;;;;;11.00;82.68;100212.13;5029657;28;20033;-77
2023/03/23 07:24:03;;;;;;;5.85;1.52;;;;;;;10.99;82.95;100210.41;5028047;28;20040;-76
2023/03/23 07:26:28;;;;;;;4.63;1.30;;;;;;;10.95;83.94;100214.03;5027947;28;20404;-76
2023/03/23 07:28:53;;;;;;;4.82;1.30;;;;;;;10.90;84.51;100227.22;5028940;28;20034;-76
2023/03/23 07:31:19;;;;;;;5.70;1.80;;;;;;;10.86;85.35;100224.81;5029267;28;20045;-76
2023/03/23 07:33:44;;;;;;;4.07;1.20;;;;;;;10.80;86.14;100212.88;5029397;28;20500;-76
2023/03/23 07:36:10;;;;;;;5.07;1.33;;;;;;;10.75;87.00;100222.59;5029084;28;20039;-76
2023/03/23 07:38:36;;;;;;;3.53;1.30;;;;;;;10.73;86.84;100227.88;5030465;28;20037;-76
2023/03/23 07:41:02;;;;;;;3.13;1.13;;;;;;;10.61;86.29;100226.53;5029405;28;20021;-75
2023/03/23 07:43:28;;;;;;;4.43;1.02;;;;;;;10.57;87.04;100231.91;5028592;28;20029;-76
2023/03/23 07:45:53;;;;;;;4.40;1.20;;;;;;;10.52;88.35;100239.03;5040251;28;20025;-76
2023/03/23 07:48:19;;;;;;;3.83;1.13;;;;;;;10.52;87.95;100242.47;5029045;28;20403;-76
2023/03/23 07:50:44;;;;;;;6.07;1.10;;;;;;;10.50;87.78;100259.91;5028891;28;20082;-77
2023/03/23 07:53:10;;;;;;;4.03;0.85;;;;;;;10.41;86.65;100266.28;5028158;28;20033;-76
2023/03/23 07:55:35;;;;;;;2.92;0.90;;;;;;;10.25;86.93;100259.84;5026733;28;20242;-76
2023/03/23 07:58:00;;;;;;;3.30;0.60;;;;;;;10.09;85.76;100234.34;5025709;28;20091;-76
2023/03/23 08:00:26;;;;;;;1.55;0.50;;;;;;;10.01;85.85;100233.78;5026755;28;20033;-76
2023/03/23 08:02:58;;;;;;;1.20;0.52;;;;;;;9.92;85.94;100242.72;5027190;28;20133;-76
2023/03/23 08:05:26;;;;;;;1.98;0.50;;;;;;;9.84;86.10;100245.56;5025909;28;20041;-76
2023/03/23 08:07:53;;;;;;;1.05;0.60;;;;;;;9.80;86.69;100253.53;5026596;28;20430;-76
2023/03/23 08:10:21;;;;;;;2.70;0.50;;;;;;;9.76;87.55;100263.16;5026692;28;20047;-76
2023/03/23 08:12:47;;;;;;;1.67;0.50;;;;;;;9.72;87.62;100266.75;5027376;28;20303;-76
2023/03/23 08:15:14;;;;;;;2.00;0.60;;;;;;;9.70;87.74;100258.16;5028929;28;20121;-76
2023/03/23 08:17:40;;;;;;;1.33;0.50;;;;;;;9.69;87.93;100259.06;5026887;28;20080;-76
2023/03/23 08:20:10;;;;;;;2.20;0.50;;;;;;;9.66;88.44;100259.97;5026482;28;20025;-76
2023/03/23 08:22:35;;;;;;;3.05;0.60;;;;;;;9.66;88.52;100266.94;5027899;28;20407;-76
2023/03/23 08:25:03;;;;;;;1.73;0.70;;;;;;;9.65;89.42;100262.66;5028140;28;20037;-76
2023/03/23 08:27:29;;;;;;;1.98;0.60;;;;;;;9.69;89.24;100272.03;5024015;28;20037;-76
2023/03/23 08:29:54;;;;;;;4.05;0.80;;;;;;;9.75;88.54;100277.03;5026262;28;20431;-76
2023/03/23 08:32:19;;;;;;;3.00;0.75;;;;;;;9.82;88.67;100270.75;5029023;28;20025;-76
2023/03/23 08:34:44;;;;;;;3.08;0.90;;;;;;;9.85;88.00;100286.25;5028193;28;20024;-76
2023/03/23 08:37:10;;;;;;;1.95;0.73;;;;;;;9.90;87.49;100274.88;5024412;28;20465;-77
2023/03/23 08:39:35;;;;;;;2.42;0.60;;;;;;;9.91;87.20;100285.19;5024036;28;20037;-77
2023/03/23 08:42:00;;;;;;;3.33;0.90;;;;;;;9.91;87.18;100286.94;5026869;28;20057;-76
2023/03/23 08:44:26;;;;;;;3.38;0.63;;;;;;;9.93;87.53;100274.75;5027550;28;20026;-76
2023/03/23 08:46:56;;;;;;;2.55;0.77;;;;;;;9.97;86.46;100268.56;5030662;28;20021;-76
2023/03/23 08:49:22;;;;;;;2.50;0.70;;;;;;;9.99;86.24;100275.38;5030869;28;20037;-76
2023/03/23 08:51:48;;;;;;;1.88;0.60;;;;;;;10.01;85.48;100272.75;5030934;28;20026;-76
2023/03/23 08:54:13;;;;;;;1.90;0.52;;;;;;;10.00;84.97;100266.69;5029838;28;20087;-76
2023/03/23 08:56:38;;;;;;;1.98;0.40;;;;;;;10.01;84.95;100276.19;5033460;28;20037;-76
2023/03/23 08:59:04;;;;;;;1.40;0.40;;;;;;;10.04;84.89;100277.88;5048429;28;20035;-76
2023/03/23 09:01:30;;;;;;;1.55;0.50;;;;;;;10.07;84.49;100280.38;5039612;28;20480;-76
2023/03/23 09:03:55;;;;;;;3.60;0.80;;;;;;;10.07;84.25;100282.97;5028876;28;20041;-76
2023/03/23 09:06:21;;;;;;;3.65;0.60;;;;;;;10.08;84.10;100283.81;5028997;28;20029;-76
2023/03/23 09:08:46;;;;;;;4.13;0.57;;;;;;;10.12;84.84;100277.63;5027257;28;20472;-76
2023/03/23 09:11:11;;;;;;;2.40;0.50;;;;;;;10.18;84.64;100280.84;5027587;28;20109;-76
2023/03/23 09:13:38;;;;;;;3.33;0.50;;;;;;;10.24;84.85;100285.00;5028126;28;20025;-76
2023/03/23 09:16:04;;;;;;;2.25;0.68;;;;;;;10.27;84.14;100284.03;5026002;28;20333;-76
2023/03/23 09:18:32;;;;;;;2.15;0.60;;;;;;;10.26;83.58;100279.72;5027601;28;20029;-76
2023/03/23 09:20:58;;;;;;;1.42;0.40;;;;;;;10.24;83.51;100269.41;5031179;28;20018;-76
2023/03/23 09:23:24;;;;;;;3.63;0.60;;;;;;;10.30;84.15;100252.72;5029354;28;20036;-76
2023/03/23 09:25:51;;;;;;;2.95;0.73;;;;;;;10.38;84.46;100263.78;5031322;28;20381;-76
2023/03/23 09:28:16;;;;;;;3.08;0.73;;;;;;;10.46;84.07;100259.13;5029166;28;20494;-76
2023/03/23 09:30:42;;;;;;;2.88;0.75;;;;;;;10.51;83.31;100281.53;5032976;28;20057;-76
2023/03/23 09:33:08;;;;;;;3.38;0.70;;;;;;;10.51;84.31;100281.53;5031471;28;20040;-76
2023/03/23 09:35:35;;;;;;;2.95;0.77;;;;;;;10.52;83.04;100285.84;5028325;28;20384;-76
2023/03/23 09:38:01;;;;;;;2.97;0.60;;;;;;;10.45;82.16;100293.84;5032125;28;20104;-76
2023/03/23 09:40:33;;;;;;;2.22;0.75;;;;;;;10.36;82.62;100283.75;5031240;28;20024;-76
2023/03/23 09:43:10;;;;;;;2.88;0.65;;;;;;;10.27;83.28;100278.84;5031004;28;20380;-76
2023/03/23 09:46:03;;;;;;;2.22;0.70;;;;;;;10.25;82.75;100291.91;5031828;28;20065;-76
2023/03/23 09:48:50;;;;;;;2.90;0.70;;;;;;;10.25;83.64;100304.03;5030381;28;20025;-77
2023/03/23 09:51:32;;;;;;;3.30;0.60;;;;;;;10.23;84.02;100292.84;5032067;28;20080;-76
2023/03/23 09:54:10;;;;;;;2.28;0.70;;;;;;;10.22;83.76;100302.38;5029219;28;20566;-77
2023/03/23 09:56:36;;;;;;;3.75;0.80;;;;;;;10.25;84.43;100298.81;5031702;28;20033;-76
2023/03/23 09:59:19;;;;;;;2.17;0.80;;;;;;;10.27;84.93;100303.09;5031654;28;20365;-76
2023/03/23 10:01:49;;;;;;;3.58;0.63;;;;;;;10.32;84.12;100309.00;5029131;28;20384;-76
2023/03/23 10:04:34;;;;;;;1.88;0.73;;;;;;;10.38;85.12;100301.88;5030714;28;20038;-77
2023/03/23 10:07:09;;;;;;;2.75;0.70;;;;;;;10.45;85.64;100314.66;5031983;28;20087;-77
2023/03/23 10:09:36;;;;;;;4.50;0.70;;;;;;;10.50;84.82;100326.66;5031095;28;20527;-76
2023/03/23 10:12:18;;;;;;;4.25;0.80;;;;;;;10.56;84.28;100322.09;5029693;28;20104;-76
2023/03/23 10:15:02;;;;;;;2.47;0.70;;;;;;;10.58;83.96;100329.84;5031502;28;20017;-77
2023/03/23 10:17:37;;;;;;;3.50;0.98;;;;;;;10.58;85.07;100309.06;5032243;28;20048;-77
2023/03/23 10:20:20;;;;;;;3.45;0.80;;;;;;;10.65;84.31;100315.72;5030476;28;20104;-76
2023/03/23 10:23:18;;;;;;;4.20;0.95;;;;;;;10.71;84.49;100320.72;5031589;28;20097;-76
2023/03/23 10:26:08;;;;;;;3.63;0.80;;;;;;;10.78;84.57;100322.19;4978583;28;20091;-76
2023/03/23 10:28:41;;;;;;;2.35;0.82;;;;;;;10.84;84.02;100326.34;5033104;28;20116;-76
2023/03/23 10:31:13;;;;;;;5.15;0.98;;;;;;;10.91;83.14;100332.19;5033238;28;20480;-76
2023/03/23 10:33:43;;;;;;;4.50;0.90;;;;;;;11.00;82.78;100334.44;5033031;28;20037;-77
2023/03/23 10:36:26;;;;;;;3.95;1.05;;;;;;;11.12;83.17;100334.91;5033366;28;20492;-76
2023/03/23 10:39:11;;;;;;;3.22;0.80;;;;;;;11.24;83.70;100334.47;5032923;28;20037;-76
2023/03/23 10:41:37;;;;;;;3.65;0.90;;;;;;;11.39;82.95;100338.25;5031311;28;20025;-76
2023/03/23 10:44:10;;;;;;;4.38;0.95;;;;;;;11.51;81.48;100336.94;5029832;28;20060;-76
2023/03/23 10:46:48;;;;;;;3.30;0.90;;;;;;;11.66;82.89;100346.78;5031315;28;20029;-76
2023/03/23 10:49:19;;;;;;;5.50;1.25;;;;;;;11.79;81.33;100351.53;5029720;28;21725;-77
2023/03/23 10:51:50;;;;;;;4.68;1.10;;;;;;;11.88;80.70;100345.97;5029484;28;20088;-77
2023/03/23 10:54:26;;;;;;;2.92;1.10;;;;;;;11.90;79.99;100344.16;5029176;28;20029;-77
2023/03/23 10:56:51;;;;;;;3.20;1.08;;;;;;;11.97;78.86;100340.38;5035748;28;20048;-76
2023/03/23 10:59:26;;;;;;;2.85;1.10;;;;;;;12.09;79.94;100343.44;5030145;28;20025;-76
2023/03/23 11:01:55;;;;;;;3.22;1.08;;;;;;;12.15;78.57;100348.41;5029592;28;20025;-77
2023/03/23 11:04:22;;;;;;;3.00;1.20;;;;;;;12.22;78.69;100330.75;5027446;28;20045;-76
2023/03/23 11:07:00;;;;;;;3.30;1.10;;;;;;;12.29;78.77;100330.47;5028069;28;20025;-76
2023/03/23 11:09:51;;;;;;;3.22;1.00;;;;;;;12.37;79.36;100331.88;5029556;28;20033;-76
2023/03/23 11:12:20;;;;;;;3.20;1.00;;;;;;;12.40;78.12;100331.75;5030159;28;20021;-77
2023/03/23 11:14:45;;;;;;;4.03;1.20;;;;;;;12.46;78.21;100339.34;5029150;28;20047;-77
2023/03/23 11:17:26;;;;;;;5.53;1.10;;;;;;;12.52;78.03;100331.25;5028777;28;20405;-76
2023/03/23 11:19:54;;;;;;;5.00;1.35;;;;;;;12.63;78.27;100332.56;5029061;28;20035;-77
2023/03/23 11:22:32;;;;;;;3.70;1.05;;;;;;;12.69;77.62;100321.84;5028220;28;20847;-76
2023/03/23 11:25:04;;;;;;;4.28;1.27;;;;;;;12.78;76.68;100334.50;5028217;28;20060;-77
2023/03/23 11:27:30;;;;;;;4.25;1.13;;;;;;;12.82;75.30;100333.44;5029013;28;20111;-77
2023/03/23 11:30:09;;;;;;;2.47;1.05;;;;;;;12.80;75.16;100335.31;5028826;28;20056;-77
2023/03/23 11:32:36;;;;;;;3.33;1.10;;;;;;;12.82;75.36;100345.66;5029572;28;20084;-77
2023/03/23 11:35:08;;;;;;;4.47;1.10;;;;;;;12.88;75.26;100343.63;5028138;28;20397;-76